createdAt,value
2018-08-09T00:00:11.794Z,23.07
2018-08-09T00:02:40.916Z,22.95
2018-08-09T00:05:10.050Z,22.80
2018-08-09T00:07:39.172Z,22.61
2018-08-09T00:10:08.289Z,22.55
2018-08-09T00:12:38.660Z,22.48
2018-08-09T00:15:07.904Z,22.49
2018-08-09T00:17:37.059Z,22.48
2018-08-09T00:20:07.203Z,22.44
2018-08-09T00:22:36.382Z,22.41
2018-08-09T00:25:05.944Z,22.48
2018-08-09T00:27:35.472Z,22.40
2018-08-09T00:30:05.629Z,22.40
2018-08-09T00:32:34.810Z,22.36
2018-08-09T00:35:03.961Z,22.14
2018-08-09T00:37:33.116Z,22.28
2018-08-09T00:40:02.292Z,22.37
2018-08-09T00:42:31.375Z,22.40
2018-08-09T00:45:00.529Z,22.35
2018-08-09T00:47:29.639Z,22.09
2018-08-09T00:49:58.720Z,22.04
2018-08-09T00:52:27.903Z,22.06
2018-08-09T00:54:57.009Z,22.13
2018-08-09T00:57:26.267Z,21.99
2018-08-09T00:59:55.440Z,22.04
2018-08-09T01:02:24.603Z,22.05
2018-08-09T01:04:53.689Z,22.11
2018-08-09T01:07:22.934Z,22.24
2018-08-09T01:09:52.024Z,22.36
2018-08-09T01:12:21.111Z,22.22
2018-08-09T01:14:50.237Z,22.08
2018-08-09T01:17:19.388Z,22.03
2018-08-09T01:19:48.491Z,21.95
2018-08-09T01:22:17.655Z,21.83
2018-08-09T01:24:46.735Z,21.80
2018-08-09T01:27:15.900Z,21.83
2018-08-09T01:29:45.030Z,22.01
2018-08-09T01:32:14.089Z,21.97
2018-08-09T01:34:43.221Z,22.16
2018-08-09T01:37:12.495Z,22.12
2018-08-09T01:39:41.653Z,22.07
2018-08-09T01:42:22.237Z,21.92
2018-08-09T01:44:51.336Z,21.69
2018-08-09T01:47:20.840Z,21.59
2018-08-09T01:49:50.058Z,21.51
2018-08-09T01:52:19.212Z,21.49
2018-08-09T01:54:48.476Z,21.49
2018-08-09T01:57:17.666Z,21.45
2018-08-09T01:59:46.817Z,21.46
2018-08-09T02:02:16.001Z,21.46
2018-08-09T02:04:45.141Z,21.51
2018-08-09T02:07:14.259Z,21.75
2018-08-09T02:09:43.363Z,21.85
2018-08-09T02:12:12.476Z,21.76
2018-08-09T02:14:41.611Z,21.61
2018-08-09T02:17:10.727Z,21.46
2018-08-09T02:19:39.851Z,21.44
2018-08-09T02:22:08.979Z,21.44
2018-08-09T02:24:38.133Z,21.42
2018-08-09T02:27:07.264Z,21.27
2018-08-09T02:29:36.401Z,21.27
2018-08-09T02:32:05.543Z,21.12
2018-08-09T02:34:34.631Z,21.34
2018-08-09T02:37:03.825Z,21.44
2018-08-09T02:39:32.912Z,21.52
2018-08-09T02:42:02.082Z,21.34
2018-08-09T02:44:31.173Z,21.17
2018-08-09T02:47:00.439Z,21.00
2018-08-09T02:49:29.546Z,20.84
2018-08-09T02:51:58.676Z,20.81
2018-08-09T02:54:27.809Z,20.92
2018-08-09T02:56:56.974Z,21.04
2018-08-09T02:59:26.081Z,21.13
2018-08-09T03:01:55.319Z,20.93
2018-08-09T03:04:24.443Z,20.78
2018-08-09T03:06:53.560Z,20.77
2018-08-09T03:09:22.652Z,20.83
2018-08-09T03:11:51.790Z,20.78
2018-08-09T03:14:20.942Z,20.88
2018-08-09T03:16:50.036Z,21.12
2018-08-09T03:19:19.184Z,21.19
2018-08-09T03:21:48.386Z,21.05
2018-08-09T03:24:17.679Z,20.95
2018-08-09T03:26:46.839Z,20.92
2018-08-09T03:29:15.908Z,20.92
2018-08-09T03:31:45.014Z,20.95
2018-08-09T03:34:14.198Z,20.96
2018-08-09T03:36:43.310Z,20.81
2018-08-09T03:39:13.047Z,20.89
2018-08-09T03:41:42.159Z,20.82
2018-08-09T03:44:11.311Z,20.73
2018-08-09T03:46:40.409Z,20.63
2018-08-09T03:49:09.520Z,20.49
2018-08-09T03:51:38.720Z,20.70
2018-08-09T03:54:07.839Z,20.67
2018-08-09T03:56:36.923Z,20.80
2018-08-09T03:59:06.069Z,20.61
2018-08-09T04:01:35.201Z,20.51
2018-08-09T04:04:04.316Z,20.55
2018-08-09T04:06:33.546Z,20.55
2018-08-09T04:09:02.668Z,20.59
2018-08-09T04:11:31.750Z,20.58
2018-08-09T04:14:00.874Z,20.43
2018-08-09T04:16:30.121Z,20.49
2018-08-09T04:18:59.218Z,20.56
2018-08-09T04:21:28.356Z,20.57
2018-08-09T04:23:57.504Z,20.51
2018-08-09T04:26:26.594Z,20.55
2018-08-09T04:28:55.700Z,20.64
2018-08-09T04:31:24.980Z,20.67
2018-08-09T04:33:54.096Z,20.67
2018-08-09T04:36:23.248Z,20.88
2018-08-09T04:38:52.459Z,20.84
2018-08-09T04:41:21.587Z,20.76
2018-08-09T04:43:50.747Z,20.72
2018-08-09T04:46:19.896Z,20.70
2018-08-09T04:48:49.052Z,20.77
2018-08-09T04:51:18.159Z,20.68
2018-08-09T04:53:47.346Z,20.75
2018-08-09T04:56:16.473Z,20.78
2018-08-09T04:58:45.608Z,20.87
2018-08-09T05:01:14.843Z,21.00
2018-08-09T05:03:44.093Z,20.85
2018-08-09T05:06:13.249Z,20.83
2018-08-09T05:08:42.605Z,20.75
2018-08-09T05:11:11.727Z,20.91
2018-08-09T05:13:40.879Z,20.93
2018-08-09T05:16:10.155Z,20.92
2018-08-09T05:18:39.351Z,21.05
2018-08-09T05:21:08.767Z,21.11
2018-08-09T05:23:37.871Z,21.12
2018-08-09T05:26:07.490Z,21.20
2018-08-09T05:28:36.626Z,21.28
2018-08-09T05:31:05.743Z,21.28
2018-08-09T05:33:34.917Z,21.40
2018-08-09T05:36:04.151Z,21.44
2018-08-09T05:38:33.296Z,21.43
2018-08-09T05:41:02.461Z,21.48
2018-08-09T05:43:31.603Z,21.51
2018-08-09T05:46:00.726Z,21.55
2018-08-09T05:48:30.186Z,21.56
2018-08-09T05:50:59.290Z,21.72
2018-08-09T05:53:28.527Z,21.75
2018-08-09T05:55:57.756Z,21.74
2018-08-09T05:58:26.932Z,21.86
2018-08-09T06:00:56.109Z,21.93
2018-08-09T06:03:25.240Z,21.82
2018-08-09T06:05:54.306Z,21.95
2018-08-09T06:08:23.485Z,21.93
2018-08-09T06:10:52.571Z,21.97
2018-08-09T06:13:22.642Z,22.00
2018-08-09T06:15:51.792Z,22.05
2018-08-09T06:18:21.094Z,22.12
2018-08-09T06:20:50.224Z,22.16
2018-08-09T06:23:19.441Z,22.26
2018-08-09T06:25:48.548Z,22.32
2018-08-09T06:28:17.699Z,22.25
2018-08-09T06:30:46.924Z,22.63
2018-08-09T06:33:16.052Z,22.63
2018-08-09T06:35:45.565Z,22.58
2018-08-09T06:38:14.819Z,22.94
2018-08-09T06:40:43.946Z,22.76
2018-08-09T06:43:13.077Z,22.81
2018-08-09T06:45:42.202Z,22.79
2018-08-09T06:48:11.343Z,22.88
2018-08-09T06:50:40.488Z,23.04
2018-08-09T06:53:09.631Z,23.06
2018-08-09T06:55:38.756Z,23.17
2018-08-09T06:58:07.862Z,23.29
2018-08-09T07:00:36.968Z,23.11
2018-08-09T07:03:07.153Z,23.23
2018-08-09T07:05:36.280Z,23.18
2018-08-09T07:08:05.408Z,23.13
2018-08-09T07:10:34.572Z,23.23
2018-08-09T07:13:03.704Z,23.37
2018-08-09T07:15:32.820Z,23.46
2018-08-09T07:18:01.944Z,23.52
2018-08-09T07:20:31.368Z,23.58
2018-08-09T07:23:00.500Z,23.55
2018-08-09T07:25:29.708Z,23.63
2018-08-09T07:27:58.778Z,23.65
2018-08-09T07:30:27.875Z,23.75
2018-08-09T07:32:57.002Z,24.04
2018-08-09T07:35:26.101Z,24.09
2018-08-09T07:37:55.337Z,24.13
2018-08-09T07:40:24.411Z,24.28
2018-08-09T07:42:53.520Z,24.33
2018-08-09T07:45:22.596Z,24.26
2018-08-09T07:47:51.767Z,24.35
2018-08-09T07:50:20.831Z,24.39
2018-08-09T07:52:49.945Z,24.44
2018-08-09T07:55:19.135Z,24.45
2018-08-09T07:57:48.207Z,24.57
2018-08-09T08:00:17.579Z,24.74
2018-08-09T08:02:46.707Z,24.81
2018-08-09T08:05:15.795Z,24.91
2018-08-09T08:07:45.053Z,25.00
2018-08-09T08:10:14.165Z,25.07
2018-08-09T08:12:43.272Z,25.15
2018-08-09T08:15:12.459Z,25.21
2018-08-09T08:17:41.875Z,25.23
2018-08-09T08:20:10.999Z,25.46
2018-08-09T08:22:46.452Z,25.46
2018-08-09T08:25:15.631Z,25.43
2018-08-09T08:27:45.066Z,25.50
2018-08-09T08:30:14.668Z,25.66
2018-08-09T08:32:43.968Z,25.90
2018-08-09T08:35:13.106Z,25.85
2018-08-09T08:37:42.308Z,25.95
2018-08-09T08:40:11.458Z,25.97
2018-08-09T08:42:40.584Z,25.99
2018-08-09T08:45:12.382Z,26.11
2018-08-09T08:47:41.821Z,26.05
2018-08-09T08:50:11.451Z,26.28
2018-08-09T08:52:40.588Z,26.44
2018-08-09T08:55:11.387Z,26.30
2018-08-09T08:57:40.576Z,26.49
2018-08-09T09:00:11.269Z,26.48
2018-08-09T09:02:40.732Z,26.60
2018-08-09T09:05:11.552Z,26.66
2018-08-09T09:07:40.679Z,26.76
2018-08-09T09:10:11.501Z,26.66
2018-08-09T09:12:40.608Z,26.77
2018-08-09T09:15:12.241Z,26.57
2018-08-09T09:17:42.579Z,26.70
2018-08-09T09:20:13.783Z,26.94
2018-08-09T09:22:43.739Z,26.82
2018-08-09T09:25:13.133Z,26.80
2018-08-09T09:27:42.213Z,27.07
2018-08-09T09:30:14.986Z,27.29
2018-08-09T09:32:44.258Z,27.47
2018-08-09T09:35:13.408Z,27.29
2018-08-09T09:37:42.847Z,27.25
2018-08-09T09:40:11.968Z,27.25
2018-08-09T09:42:41.141Z,27.47
2018-08-09T09:45:10.689Z,27.48
2018-08-09T09:47:39.887Z,27.55
2018-08-09T09:50:10.082Z,27.53
2018-08-09T09:52:39.177Z,27.72
2018-08-09T09:55:08.372Z,27.60
2018-08-09T09:57:37.986Z,28.21
2018-08-09T10:00:12.460Z,28.10
2018-08-09T10:02:41.728Z,27.64
2018-08-09T10:05:10.836Z,27.49
2018-08-09T10:07:40.088Z,27.60
2018-08-09T10:10:09.691Z,27.52
2018-08-09T10:12:38.991Z,28.07
2018-08-09T10:15:08.240Z,28.21
2018-08-09T10:17:37.517Z,28.22
2018-08-09T10:20:07.161Z,28.31
2018-08-09T10:22:36.528Z,28.31
2018-08-09T10:25:06.008Z,28.27
2018-08-09T10:27:35.105Z,28.55
2018-08-09T10:30:05.076Z,28.65
2018-08-09T10:32:34.194Z,28.83
2018-08-09T10:35:03.296Z,28.89
2018-08-09T10:37:32.467Z,29.00
2018-08-09T10:40:01.864Z,28.85
2018-08-09T10:42:31.043Z,28.82
2018-08-09T10:45:00.148Z,28.88
2018-08-09T10:47:29.587Z,28.92
2018-08-09T10:49:58.827Z,29.36
2018-08-09T10:52:27.951Z,29.47
2018-08-09T10:54:57.159Z,29.61
2018-08-09T10:57:26.556Z,29.70
2018-08-09T10:59:55.634Z,29.54
2018-08-09T11:02:24.721Z,29.45
2018-08-09T11:04:53.829Z,29.64
2018-08-09T11:07:22.919Z,29.85
2018-08-09T11:09:52.019Z,29.92
2018-08-09T11:12:21.153Z,30.10
2018-08-09T11:14:50.791Z,30.16
2018-08-09T11:17:20.687Z,30.43
2018-08-09T11:19:49.857Z,30.23
2018-08-09T11:22:19.019Z,30.08
2018-08-09T11:24:48.152Z,30.21
2018-08-09T11:27:17.328Z,29.92
2018-08-09T11:29:46.449Z,29.81
2018-08-09T11:32:15.540Z,29.91
2018-08-09T11:34:44.708Z,30.17
2018-08-09T11:37:13.897Z,29.99
2018-08-09T11:39:43.008Z,30.20
2018-08-09T11:42:12.080Z,30.35
2018-08-09T11:44:41.282Z,30.64
2018-08-09T11:47:10.500Z,31.00
2018-08-09T11:49:39.596Z,30.92
2018-08-09T11:52:08.772Z,30.86
2018-08-09T11:54:37.880Z,31.16
2018-08-09T11:57:07.014Z,31.04
2018-08-09T11:59:36.217Z,31.17
2018-08-09T12:02:05.315Z,31.78
2018-08-09T12:04:34.632Z,32.19
2018-08-09T12:07:03.752Z,32.49
2018-08-09T12:09:32.970Z,32.93
2018-08-09T12:12:01.961Z,32.90
2018-08-09T12:14:31.079Z,32.85
2018-08-09T12:17:00.346Z,32.77
2018-08-09T12:19:29.414Z,31.85
2018-08-09T12:21:58.577Z,31.17
2018-08-09T12:24:27.833Z,30.82
2018-08-09T12:26:56.925Z,31.75
2018-08-09T12:29:26.005Z,33.09
2018-08-09T12:31:55.142Z,33.49
2018-08-09T12:34:24.349Z,34.62
2018-08-09T12:36:53.444Z,35.18
2018-08-09T12:39:22.516Z,34.96
2018-08-09T12:41:51.752Z,35.02
2018-08-09T12:44:20.874Z,35.29
2018-08-09T12:46:49.956Z,35.45
2018-08-09T12:49:19.000Z,35.89
2018-08-09T12:51:48.117Z,36.08
2018-08-09T12:54:17.200Z,36.64
2018-08-09T12:56:46.400Z,36.52
2018-08-09T12:59:15.498Z,35.88
2018-08-09T13:01:44.740Z,37.13
2018-08-09T13:04:13.872Z,37.05
2018-08-09T13:06:43.016Z,36.27
2018-08-09T13:09:12.643Z,35.22
2018-08-09T13:11:41.763Z,34.75
2018-08-09T13:14:10.876Z,35.82
2018-08-09T13:16:39.958Z,33.80
2018-08-09T13:19:09.071Z,32.98
2018-08-09T13:21:38.186Z,32.91
2018-08-09T13:24:07.375Z,32.79
2018-08-09T13:26:36.574Z,34.13
2018-08-09T13:29:05.976Z,36.18
2018-08-09T13:31:35.043Z,37.45
2018-08-09T13:34:04.164Z,36.03
2018-08-09T13:36:33.381Z,37.58
2018-08-09T13:39:02.499Z,35.62
2018-08-09T13:41:31.591Z,36.35
2018-08-09T13:44:00.687Z,35.92
2018-08-09T13:46:29.891Z,36.60
2018-08-09T13:48:59.005Z,35.66
2018-08-09T13:51:28.151Z,34.69
2018-08-09T13:53:57.209Z,34.02
2018-08-09T13:56:26.395Z,34.64
2018-08-09T13:58:55.497Z,34.00
2018-08-09T14:01:24.717Z,34.12
2018-08-09T14:03:53.848Z,34.70
2018-08-09T14:06:22.912Z,34.03
2018-08-09T14:08:52.090Z,34.07
2018-08-09T14:11:21.203Z,34.06
2018-08-09T14:13:50.320Z,33.73
2018-08-09T14:16:19.484Z,33.42
2018-08-09T14:18:48.664Z,33.24
2018-08-09T14:21:17.789Z,33.11
2018-08-09T14:23:46.989Z,34.11
2018-08-09T14:26:16.148Z,33.44
2018-08-09T14:28:45.264Z,33.05
2018-08-09T14:31:14.475Z,33.10
2018-08-09T14:33:43.572Z,33.26
2018-08-09T14:36:12.760Z,33.09
2018-08-09T14:38:41.976Z,33.05
2018-08-09T14:41:11.441Z,33.31
2018-08-09T14:43:40.593Z,34.76
2018-08-09T14:46:09.708Z,35.09
2018-08-09T14:48:38.978Z,34.53
2018-08-09T14:51:08.044Z,34.01
2018-08-09T14:53:37.185Z,33.98
2018-08-09T14:56:06.341Z,32.83
2018-08-09T14:58:35.510Z,32.36
2018-08-09T15:01:04.644Z,32.26
2018-08-09T15:03:33.738Z,32.06
2018-08-09T15:06:02.919Z,32.18
2018-08-09T15:08:32.076Z,32.59
2018-08-09T15:11:01.215Z,32.94
2018-08-09T15:13:30.321Z,32.90
2018-08-09T15:15:59.416Z,33.20
2018-08-09T15:18:28.652Z,35.02
2018-08-09T15:20:57.759Z,36.36
2018-08-09T15:23:27.111Z,36.49
2018-08-09T15:25:56.281Z,37.57
2018-08-09T15:28:26.153Z,38.07
2018-08-09T15:30:55.310Z,38.28
2018-08-09T15:33:24.485Z,37.56
2018-08-09T15:35:53.623Z,35.84
2018-08-09T15:38:22.747Z,34.79
2018-08-09T15:40:51.865Z,34.19
2018-08-09T15:43:20.969Z,33.79
2018-08-09T15:45:50.074Z,33.38
2018-08-09T15:48:19.163Z,33.27
2018-08-09T15:50:48.253Z,33.15
2018-08-09T15:53:17.346Z,33.20
2018-08-09T15:55:46.404Z,32.91
2018-08-09T15:58:15.581Z,32.38
2018-08-09T16:00:44.669Z,32.21
2018-08-09T16:03:13.869Z,31.98
2018-08-09T16:05:43.020Z,31.36
2018-08-09T16:08:12.129Z,31.53
2018-08-09T16:10:41.203Z,31.37
2018-08-09T16:13:10.353Z,31.30
2018-08-09T16:15:39.551Z,31.22
2018-08-09T16:18:08.819Z,31.14
2018-08-09T16:20:38.050Z,31.30
2018-08-09T16:23:07.247Z,31.70
2018-08-09T16:25:36.498Z,31.45
2018-08-09T16:28:06.032Z,31.36
2018-08-09T16:30:35.117Z,31.16
2018-08-09T16:33:04.433Z,30.10
2018-08-09T16:35:33.561Z,30.20
2018-08-09T16:38:02.707Z,30.48
2018-08-09T16:40:31.790Z,30.35
2018-08-09T16:43:01.379Z,29.99
2018-08-09T16:45:30.583Z,29.81
2018-08-09T16:47:59.711Z,29.81
2018-08-09T16:50:28.787Z,28.91
2018-08-09T16:52:57.887Z,28.46
2018-08-09T16:55:27.256Z,28.51
2018-08-09T16:57:56.475Z,28.20
2018-08-09T17:00:25.955Z,27.91
2018-08-09T17:02:55.722Z,27.37
2018-08-09T17:05:26.076Z,27.21
2018-08-09T17:07:55.612Z,27.07
2018-08-09T17:10:25.515Z,26.90
2018-08-09T17:12:54.686Z,26.48
2018-08-09T17:15:25.999Z,26.33
2018-08-09T17:17:55.731Z,26.30
2018-08-09T17:20:27.095Z,26.13
2018-08-09T17:22:56.781Z,26.33
2018-08-09T17:25:26.000Z,26.29
2018-08-09T17:27:55.121Z,26.13
2018-08-09T17:30:25.634Z,26.27
2018-08-09T17:32:55.534Z,26.60
2018-08-09T17:35:24.671Z,26.80
2018-08-09T17:37:54.323Z,26.75
2018-08-09T17:40:25.834Z,26.77
2018-08-09T17:42:55.721Z,26.62
2018-08-09T17:45:27.219Z,26.51
2018-08-09T17:47:56.340Z,26.58
2018-08-09T17:50:25.760Z,26.57
2018-08-09T17:52:56.394Z,26.48
2018-08-09T17:55:25.508Z,26.36
2018-08-09T17:57:54.621Z,26.47
2018-08-09T18:00:25.702Z,26.38
2018-08-09T18:02:55.092Z,26.18
2018-08-09T18:05:24.219Z,25.89
2018-08-09T18:07:53.906Z,25.67
2018-08-09T18:10:25.532Z,25.56
2018-08-09T18:12:54.617Z,25.54
2018-08-09T18:15:24.829Z,25.39
2018-08-09T18:17:54.141Z,25.29
2018-08-09T18:20:25.353Z,25.19
2018-08-09T18:22:54.468Z,24.66
2018-08-09T18:25:24.040Z,24.11
2018-08-09T18:27:53.191Z,23.78
2018-08-09T18:30:22.290Z,23.28
2018-08-09T18:32:51.464Z,23.20
2018-08-09T18:35:20.854Z,23.31
2018-08-09T18:37:49.940Z,22.87
2018-08-09T18:40:21.969Z,22.57
2018-08-09T18:42:51.092Z,22.69
2018-08-09T18:45:20.653Z,22.91
2018-08-09T18:47:49.766Z,23.01
2018-08-09T18:50:22.380Z,22.63
2018-08-09T18:52:51.941Z,22.41
2018-08-09T18:55:21.095Z,22.36
2018-08-09T18:57:50.221Z,22.32
2018-08-09T19:00:20.757Z,22.11
2018-08-09T19:02:50.419Z,22.33
2018-08-09T19:05:19.615Z,22.24
2018-08-09T19:07:48.908Z,22.57
2018-08-09T19:10:54.220Z,22.67
2018-08-09T19:13:23.362Z,22.66
2018-08-09T19:15:52.580Z,22.60
2018-08-09T19:18:21.723Z,22.47
2018-08-09T19:20:50.850Z,22.40
2018-08-09T19:23:19.949Z,21.97
2018-08-09T19:25:49.189Z,21.90
2018-08-09T19:28:18.295Z,21.83
2018-08-09T19:30:47.410Z,21.82
2018-08-09T19:33:16.583Z,21.73
2018-08-09T19:35:45.719Z,22.22
2018-08-09T19:38:14.983Z,22.45
2018-08-09T19:40:44.245Z,22.36
2018-08-09T19:43:13.365Z,22.32
2018-08-09T19:45:43.103Z,22.17
2018-08-09T19:48:12.258Z,22.03
2018-08-09T19:50:41.945Z,21.70
2018-08-09T19:53:11.077Z,21.79
2018-08-09T19:55:40.369Z,21.63
2018-08-09T19:58:09.491Z,21.58
2018-08-09T20:00:38.601Z,21.78
2018-08-09T20:03:07.793Z,21.59
2018-08-09T20:05:36.992Z,21.37
2018-08-09T20:08:06.175Z,21.25
2018-08-09T20:10:35.317Z,21.32
2018-08-09T20:13:04.455Z,21.28
2018-08-09T20:15:33.711Z,21.32
2018-08-09T20:18:02.793Z,21.35
2018-08-09T20:20:32.121Z,21.45
2018-08-09T20:23:01.248Z,21.47
2018-08-09T20:25:30.348Z,21.58
2018-08-09T20:27:59.557Z,21.27
2018-08-09T20:30:29.464Z,21.18
2018-08-09T20:32:58.636Z,21.25
2018-08-09T20:35:27.755Z,21.07
2018-08-09T20:37:56.875Z,21.08
2018-08-09T20:40:25.981Z,21.08
2018-08-09T20:42:55.302Z,21.22
2018-08-09T20:45:25.088Z,21.26
2018-08-09T20:47:54.268Z,21.13
2018-08-09T20:50:25.252Z,20.98
2018-08-09T20:52:54.354Z,20.84
2018-08-09T20:55:23.544Z,20.67
2018-08-09T20:57:53.442Z,20.66
2018-08-09T21:00:27.358Z,20.64
2018-08-09T21:02:57.896Z,20.71
2018-08-09T21:05:29.323Z,20.54
2018-08-09T21:07:58.713Z,20.69
2018-08-09T21:10:28.224Z,20.53
2018-08-09T21:12:57.363Z,20.55
2018-08-09T21:15:26.623Z,20.72
2018-08-09T21:17:55.599Z,20.66
2018-08-09T21:20:24.728Z,20.58
2018-08-09T21:22:53.865Z,20.50
2018-08-09T21:25:23.007Z,20.39
2018-08-09T21:27:52.138Z,20.58
2018-08-09T21:30:22.655Z,20.49
2018-08-09T21:32:52.138Z,20.33
2018-08-09T21:35:21.315Z,20.38
2018-08-09T21:37:50.467Z,20.44
2018-08-09T21:40:19.658Z,20.50
2018-08-09T21:42:48.695Z,20.56
2018-08-09T21:45:19.393Z,20.67
2018-08-09T21:47:48.999Z,20.71
2018-08-09T21:50:21.622Z,20.72
2018-08-09T21:52:50.727Z,20.61
2018-08-09T21:55:19.910Z,20.64
2018-08-09T21:57:49.044Z,20.73
2018-08-09T22:00:52.049Z,20.82
2018-08-09T22:03:27.069Z,20.84
2018-08-09T22:06:01.628Z,20.82
2018-08-09T22:08:36.064Z,20.75
2018-08-09T22:11:10.967Z,20.87
2018-08-09T22:13:45.504Z,20.87
2018-08-09T22:16:19.943Z,20.85
2018-08-09T22:18:54.391Z,20.82
2018-08-09T22:21:28.780Z,20.90
2018-08-09T22:23:57.900Z,20.91
2018-08-09T22:26:27.041Z,20.95
2018-08-09T22:28:56.292Z,20.95
2018-08-09T22:31:25.437Z,21.00
2018-08-09T22:33:54.693Z,20.76
2018-08-09T22:36:23.901Z,20.77
2018-08-09T22:38:52.929Z,20.87
2018-08-09T22:41:22.013Z,20.90
2018-08-09T22:43:51.137Z,20.83
2018-08-09T22:46:20.223Z,20.87
2018-08-09T22:48:49.363Z,20.87
2018-08-09T22:51:18.486Z,20.89
2018-08-09T22:53:47.599Z,20.77
2018-08-09T22:56:16.711Z,20.87
2018-08-09T22:58:46.193Z,20.82
2018-08-09T23:01:15.278Z,20.71
2018-08-09T23:03:44.683Z,20.74
2018-08-09T23:06:15.335Z,20.63
2018-08-09T23:08:44.550Z,20.55
2018-08-09T23:11:13.716Z,20.39
2018-08-09T23:13:42.919Z,20.15
2018-08-09T23:16:12.005Z,19.86
2018-08-09T23:18:41.167Z,19.73
2018-08-09T23:21:10.273Z,19.73
2018-08-09T23:23:39.413Z,19.69
2018-08-09T23:26:08.549Z,19.72
2018-08-09T23:28:37.658Z,19.62
2018-08-09T23:31:06.953Z,19.67
2018-08-09T23:33:36.031Z,19.51
2018-08-09T23:36:05.314Z,19.55
2018-08-09T23:38:34.495Z,19.69
2018-08-09T23:41:03.616Z,19.53
2018-08-09T23:43:32.689Z,19.42
2018-08-09T23:46:01.789Z,19.35
2018-08-09T23:48:31.008Z,19.38
2018-08-09T23:51:00.105Z,19.39
2018-08-09T23:53:29.260Z,19.38
2018-08-09T23:55:58.364Z,19.39
2018-08-09T23:58:27.468Z,19.38
